sensor_id;sensor_type;location;lat;lon;timestamp;P1;durP1;ratioP1;P2;durP2;ratioP2
5454;SDS011;2750;49.050;9.250;2023-07-29T00:01:33;11.03;;;8.30;;
5454;SDS011;2750;49.050;9.250;2023-07-29T00:06:35;9.83;;;7.37;;
5454;SDS011;2750;49.050;9.250;2023-07-29T00:11:38;6.87;;;6.17;;
5454;SDS011;2750;49.050;9.250;2023-07-29T00:16:40;7.17;;;6.47;;
5454;SDS011;2750;49.050;9.250;2023-07-29T00:21:42;7.33;;;6.43;;
5454;SDS011;2750;49.050;9.250;2023-07-29T00:26:45;6.00;;;5.40;;
5454;SDS011;2750;49.050;9.250;2023-07-29T00:31:46;5.37;;;4.87;;
5454;SDS011;2750;49.050;9.250;2023-07-29T00:36:48;5.43;;;4.90;;
5454;SDS011;2750;49.050;9.250;2023-07-29T00:41:51;5.77;;;5.17;;
5454;SDS011;2750;49.050;9.250;2023-07-29T00:46:52;6.53;;;5.43;;
5454;SDS011;2750;49.050;9.250;2023-07-29T00:51:54;5.27;;;4.77;;
5454;SDS011;2750;49.050;9.250;2023-07-29T00:56:57;6.63;;;4.80;;
5454;SDS011;2750;49.050;9.250;2023-07-29T01:01:59;4.30;;;3.90;;
5454;SDS011;2750;49.050;9.250;2023-07-29T01:07:03;6.33;;;3.80;;
5454;SDS011;2750;49.050;9.250;2023-07-29T01:12:18;3.87;;;3.47;;
5454;SDS011;2750;49.050;9.250;2023-07-29T01:17:25;4.13;;;3.77;;
5454;SDS011;2750;49.050;9.250;2023-07-29T01:22:33;5.40;;;3.47;;
5454;SDS011;2750;49.050;9.250;2023-07-29T01:27:37;5.00;;;3.50;;
5454;SDS011;2750;49.050;9.250;2023-07-29T01:32:40;3.87;;;3.03;;
5454;SDS011;2750;49.050;9.250;2023-07-29T01:37:46;4.03;;;3.50;;
5454;SDS011;2750;49.050;9.250;2023-07-29T01:42:53;3.53;;;3.23;;
5454;SDS011;2750;49.050;9.250;2023-07-29T01:47:55;3.23;;;3.00;;
5454;SDS011;2750;49.050;9.250;2023-07-29T01:52:57;3.30;;;3.00;;
5454;SDS011;2750;49.050;9.250;2023-07-29T01:58:00;3.67;;;3.37;;
5454;SDS011;2750;49.050;9.250;2023-07-29T02:03:01;3.33;;;2.80;;
5454;SDS011;2750;49.050;9.250;2023-07-29T02:08:03;2.80;;;2.60;;
5454;SDS011;2750;49.050;9.250;2023-07-29T02:13:06;3.07;;;2.73;;
5454;SDS011;2750;49.050;9.250;2023-07-29T02:18:07;5.67;;;2.93;;
5454;SDS011;2750;49.050;9.250;2023-07-29T02:23:09;3.27;;;2.40;;
5454;SDS011;2750;49.050;9.250;2023-07-29T02:28:12;3.93;;;2.53;;
5454;SDS011;2750;49.050;9.250;2023-07-29T02:33:13;3.37;;;2.50;;
5454;SDS011;2750;49.050;9.250;2023-07-29T02:38:15;3.00;;;2.80;;
5454;SDS011;2750;49.050;9.250;2023-07-29T02:43:18;2.47;;;2.23;;
5454;SDS011;2750;49.050;9.250;2023-07-29T02:48:19;2.30;;;2.03;;
5454;SDS011;2750;49.050;9.250;2023-07-29T02:53:21;2.53;;;2.33;;
5454;SDS011;2750;49.050;9.250;2023-07-29T02:58:24;2.60;;;2.37;;
5454;SDS011;2750;49.050;9.250;2023-07-29T03:03:26;2.40;;;2.20;;
5454;SDS011;2750;49.050;9.250;2023-07-29T03:08:27;3.00;;;2.13;;
5454;SDS011;2750;49.050;9.250;2023-07-29T03:13:30;2.87;;;2.33;;
5454;SDS011;2750;49.050;9.250;2023-07-29T03:18:32;3.07;;;2.33;;
5454;SDS011;2750;49.050;9.250;2023-07-29T03:23:34;2.63;;;2.43;;
5454;SDS011;2750;49.050;9.250;2023-07-29T03:28:38;3.23;;;2.30;;
5454;SDS011;2750;49.050;9.250;2023-07-29T03:33:40;2.80;;;1.97;;
5454;SDS011;2750;49.050;9.250;2023-07-29T03:38:41;3.80;;;2.10;;
5454;SDS011;2750;49.050;9.250;2023-07-29T03:43:46;4.27;;;2.47;;
5454;SDS011;2750;49.050;9.250;2023-07-29T03:48:47;6.83;;;2.67;;
5454;SDS011;2750;49.050;9.250;2023-07-29T03:53:49;2.60;;;2.40;;
5454;SDS011;2750;49.050;9.250;2023-07-29T03:58:52;2.60;;;2.40;;
5454;SDS011;2750;49.050;9.250;2023-07-29T04:03:54;3.40;;;1.90;;
5454;SDS011;2750;49.050;9.250;2023-07-29T04:08:55;3.30;;;1.97;;
5454;SDS011;2750;49.050;9.250;2023-07-29T04:13:58;2.23;;;2.00;;
5454;SDS011;2750;49.050;9.250;2023-07-29T04:19:00;2.27;;;1.90;;
5454;SDS011;2750;49.050;9.250;2023-07-29T04:24:01;3.40;;;2.30;;
5454;SDS011;2750;49.050;9.250;2023-07-29T04:29:05;2.60;;;2.40;;
5454;SDS011;2750;49.050;9.250;2023-07-29T04:34:06;3.47;;;2.20;;
5454;SDS011;2750;49.050;9.250;2023-07-29T04:39:08;3.50;;;2.50;;
5454;SDS011;2750;49.050;9.250;2023-07-29T04:44:11;3.23;;;2.80;;
5454;SDS011;2750;49.050;9.250;2023-07-29T04:49:13;3.97;;;2.77;;
5454;SDS011;2750;49.050;9.250;2023-07-29T04:54:14;9.50;;;4.53;;
5454;SDS011;2750;49.050;9.250;2023-07-29T04:59:17;7.27;;;3.47;;
5454;SDS011;2750;49.050;9.250;2023-07-29T05:04:19;5.47;;;3.57;;
5454;SDS011;2750;49.050;9.250;2023-07-29T05:09:20;4.00;;;3.03;;
5454;SDS011;2750;49.050;9.250;2023-07-29T05:14:23;6.03;;;3.77;;
5454;SDS011;2750;49.050;9.250;2023-07-29T05:19:25;5.43;;;3.70;;
5454;SDS011;2750;49.050;9.250;2023-07-29T05:24:26;6.43;;;4.33;;
5454;SDS011;2750;49.050;9.250;2023-07-29T05:29:29;7.37;;;4.07;;
5454;SDS011;2750;49.050;9.250;2023-07-29T05:34:31;4.63;;;4.10;;
5454;SDS011;2750;49.050;9.250;2023-07-29T05:39:32;5.80;;;4.23;;
5454;SDS011;2750;49.050;9.250;2023-07-29T05:44:35;5.50;;;4.50;;
5454;SDS011;2750;49.050;9.250;2023-07-29T05:49:37;6.17;;;4.67;;
5454;SDS011;2750;49.050;9.250;2023-07-29T05:54:38;4.50;;;4.03;;
5454;SDS011;2750;49.050;9.250;2023-07-29T05:59:41;6.80;;;4.67;;
5454;SDS011;2750;49.050;9.250;2023-07-29T06:04:43;5.90;;;3.73;;
5454;SDS011;2750;49.050;9.250;2023-07-29T06:09:44;4.17;;;3.77;;
5454;SDS011;2750;49.050;9.250;2023-07-29T06:14:47;4.40;;;4.00;;
5454;SDS011;2750;49.050;9.250;2023-07-29T06:19:49;6.27;;;3.90;;
5454;SDS011;2750;49.050;9.250;2023-07-29T06:24:50;3.90;;;3.50;;
5454;SDS011;2750;49.050;9.250;2023-07-29T06:29:53;5.00;;;3.47;;
5454;SDS011;2750;49.050;9.250;2023-07-29T06:34:55;3.33;;;3.03;;
5454;SDS011;2750;49.050;9.250;2023-07-29T06:39:56;3.53;;;2.70;;
5454;SDS011;2750;49.050;9.250;2023-07-29T06:44:59;5.10;;;3.20;;
5454;SDS011;2750;49.050;9.250;2023-07-29T06:50:01;4.97;;;3.20;;
5454;SDS011;2750;49.050;9.250;2023-07-29T06:55:02;3.03;;;2.70;;
5454;SDS011;2750;49.050;9.250;2023-07-29T07:00:07;4.30;;;2.90;;
5454;SDS011;2750;49.050;9.250;2023-07-29T07:05:09;5.60;;;3.07;;
5454;SDS011;2750;49.050;9.250;2023-07-29T07:10:11;3.43;;;2.70;;
5454;SDS011;2750;49.050;9.250;2023-07-29T07:15:14;3.80;;;2.60;;
5454;SDS011;2750;49.050;9.250;2023-07-29T07:20:16;3.33;;;2.90;;
5454;SDS011;2750;49.050;9.250;2023-07-29T07:25:17;3.30;;;3.00;;
5454;SDS011;2750;49.050;9.250;2023-07-29T07:30:20;4.30;;;3.20;;
5454;SDS011;2750;49.050;9.250;2023-07-29T07:35:22;3.07;;;2.70;;
5454;SDS011;2750;49.050;9.250;2023-07-29T07:40:23;3.63;;;2.97;;
5454;SDS011;2750;49.050;9.250;2023-07-29T07:45:26;3.10;;;2.80;;
5454;SDS011;2750;49.050;9.250;2023-07-29T07:50:29;5.40;;;3.20;;
5454;SDS011;2750;49.050;9.250;2023-07-29T07:55:30;4.27;;;3.20;;
5454;SDS011;2750;49.050;9.250;2023-07-29T08:00:33;4.73;;;3.33;;
5454;SDS011;2750;49.050;9.250;2023-07-29T08:05:35;4.57;;;3.70;;
5454;SDS011;2750;49.050;9.250;2023-07-29T08:10:36;4.00;;;3.30;;
5454;SDS011;2750;49.050;9.250;2023-07-29T08:15:39;5.00;;;3.40;;
5454;SDS011;2750;49.050;9.250;2023-07-29T08:20:42;4.18;;;3.20;;
5454;SDS011;2750;49.050;9.250;2023-07-29T08:25:53;3.00;;;2.70;;
5454;SDS011;2750;49.050;9.250;2023-07-29T08:30:57;3.55;;;2.45;;
5454;SDS011;2750;49.050;9.250;2023-07-29T08:35:59;2.13;;;1.92;;
5454;SDS011;2750;49.050;9.250;2023-07-29T08:41:04;4.18;;;2.30;;
5454;SDS011;2750;49.050;9.250;2023-07-29T08:46:13;2.72;;;2.08;;
5454;SDS011;2750;49.050;9.250;2023-07-29T08:51:16;3.67;;;2.30;;
5454;SDS011;2750;49.050;9.250;2023-07-29T08:56:20;2.42;;;2.10;;
5454;SDS011;2750;49.050;9.250;2023-07-29T09:01:23;3.53;;;2.40;;
5454;SDS011;2750;49.050;9.250;2023-07-29T09:06:25;3.00;;;2.70;;
5454;SDS011;2750;49.050;9.250;2023-07-29T09:11:27;3.63;;;2.30;;
5454;SDS011;2750;49.050;9.250;2023-07-29T09:16:30;3.67;;;2.75;;
5454;SDS011;2750;49.050;9.250;2023-07-29T09:21:33;2.58;;;2.38;;
5454;SDS011;2750;49.050;9.250;2023-07-29T09:26:35;4.15;;;2.03;;
5454;SDS011;2750;49.050;9.250;2023-07-29T09:31:38;2.63;;;2.20;;
5454;SDS011;2750;49.050;9.250;2023-07-29T09:36:39;2.38;;;1.90;;
5454;SDS011;2750;49.050;9.250;2023-07-29T09:41:46;2.28;;;2.00;;
5454;SDS011;2750;49.050;9.250;2023-07-29T09:46:50;3.72;;;2.00;;
5454;SDS011;2750;49.050;9.250;2023-07-29T09:51:51;4.03;;;2.40;;
5454;SDS011;2750;49.050;9.250;2023-07-29T09:56:57;5.47;;;2.87;;
5454;SDS011;2750;49.050;9.250;2023-07-29T10:01:59;2.40;;;2.20;;
5454;SDS011;2750;49.050;9.250;2023-07-29T10:07:01;3.80;;;2.50;;
5454;SDS011;2750;49.050;9.250;2023-07-29T10:12:03;3.53;;;2.80;;
5454;SDS011;2750;49.050;9.250;2023-07-29T10:17:09;2.77;;;2.50;;
5454;SDS011;2750;49.050;9.250;2023-07-29T10:22:11;3.00;;;2.80;;
5454;SDS011;2750;49.050;9.250;2023-07-29T10:27:18;2.40;;;2.20;;
5454;SDS011;2750;49.050;9.250;2023-07-29T10:32:22;2.33;;;2.13;;
5454;SDS011;2750;49.050;9.250;2023-07-29T10:37:27;2.67;;;1.90;;
5454;SDS011;2750;49.050;9.250;2023-07-29T10:42:28;1.60;;;1.50;;
5454;SDS011;2750;49.050;9.250;2023-07-29T10:47:31;1.65;;;1.30;;
5454;SDS011;2750;49.050;9.250;2023-07-29T10:52:40;2.05;;;1.95;;
5454;SDS011;2750;49.050;9.250;2023-07-29T10:57:42;2.00;;;1.70;;
5454;SDS011;2750;49.050;9.250;2023-07-29T11:02:56;3.38;;;1.85;;
5454;SDS011;2750;49.050;9.250;2023-07-29T11:08:00;1.90;;;1.60;;
5454;SDS011;2750;49.050;9.250;2023-07-29T11:13:17;1.70;;;1.60;;
5454;SDS011;2750;49.050;9.250;2023-07-29T11:18:20;2.72;;;1.60;;
5454;SDS011;2750;49.050;9.250;2023-07-29T11:23:27;1.60;;;1.50;;
5454;SDS011;2750;49.050;9.250;2023-07-29T11:28:30;2.08;;;1.40;;
5454;SDS011;2750;49.050;9.250;2023-07-29T11:33:33;2.10;;;1.60;;
5454;SDS011;2750;49.050;9.250;2023-07-29T11:38:35;3.28;;;1.67;;
5454;SDS011;2750;49.050;9.250;2023-07-29T11:43:38;1.40;;;1.30;;
5454;SDS011;2750;49.050;9.250;2023-07-29T11:48:40;2.10;;;1.40;;
5454;SDS011;2750;49.050;9.250;2023-07-29T11:53:45;2.30;;;1.40;;
5454;SDS011;2750;49.050;9.250;2023-07-29T11:58:47;2.95;;;1.70;;
5454;SDS011;2750;49.050;9.250;2023-07-29T12:03:50;1.67;;;1.58;;
5454;SDS011;2750;49.050;9.250;2023-07-29T12:08:52;1.77;;;1.67;;
5454;SDS011;2750;49.050;9.250;2023-07-29T12:13:54;1.58;;;1.48;;
5454;SDS011;2750;49.050;9.250;2023-07-29T12:18:57;1.92;;;1.80;;
5454;SDS011;2750;49.050;9.250;2023-07-29T12:24:02;1.75;;;1.65;;
5454;SDS011;2750;49.050;9.250;2023-07-29T12:29:11;1.63;;;1.52;;
5454;SDS011;2750;49.050;9.250;2023-07-29T12:34:18;2.05;;;1.80;;
5454;SDS011;2750;49.050;9.250;2023-07-29T12:39:21;1.75;;;1.55;;
5454;SDS011;2750;49.050;9.250;2023-07-29T12:44:24;2.45;;;1.63;;
5454;SDS011;2750;49.050;9.250;2023-07-29T12:49:28;1.88;;;1.60;;
5454;SDS011;2750;49.050;9.250;2023-07-29T12:54:30;4.90;;;2.10;;
5454;SDS011;2750;49.050;9.250;2023-07-29T12:59:31;4.50;;;1.77;;
5454;SDS011;2750;49.050;9.250;2023-07-29T13:04:34;2.00;;;1.60;;
5454;SDS011;2750;49.050;9.250;2023-07-29T13:09:36;1.92;;;1.80;;
5454;SDS011;2750;49.050;9.250;2023-07-29T13:14:37;1.98;;;1.77;;
5454;SDS011;2750;49.050;9.250;2023-07-29T13:19:40;1.70;;;1.60;;
5454;SDS011;2750;49.050;9.250;2023-07-29T13:24:42;2.20;;;2.05;;
5454;SDS011;2750;49.050;9.250;2023-07-29T13:29:43;3.45;;;1.90;;
5454;SDS011;2750;49.050;9.250;2023-07-29T13:34:47;2.15;;;1.95;;
5454;SDS011;2750;49.050;9.250;2023-07-29T13:39:49;2.03;;;1.90;;
5454;SDS011;2750;49.050;9.250;2023-07-29T13:44:50;2.42;;;1.83;;
5454;SDS011;2750;49.050;9.250;2023-07-29T13:49:53;1.67;;;1.58;;
5454;SDS011;2750;49.050;9.250;2023-07-29T13:54:55;2.40;;;2.10;;
5454;SDS011;2750;49.050;9.250;2023-07-29T13:59:57;2.33;;;1.90;;
5454;SDS011;2750;49.050;9.250;2023-07-29T14:05:00;2.15;;;1.95;;
5454;SDS011;2750;49.050;9.250;2023-07-29T14:10:02;2.13;;;1.95;;
5454;SDS011;2750;49.050;9.250;2023-07-29T14:15:04;2.35;;;1.90;;
5454;SDS011;2750;49.050;9.250;2023-07-29T14:20:09;2.08;;;1.88;;
5454;SDS011;2750;49.050;9.250;2023-07-29T14:25:11;2.10;;;2.00;;
5454;SDS011;2750;49.050;9.250;2023-07-29T14:30:13;2.42;;;2.00;;
5454;SDS011;2750;49.050;9.250;2023-07-29T14:35:15;2.00;;;1.90;;
5454;SDS011;2750;49.050;9.250;2023-07-29T14:40:17;2.40;;;1.88;;
5454;SDS011;2750;49.050;9.250;2023-07-29T14:45:18;3.35;;;2.33;;
5454;SDS011;2750;49.050;9.250;2023-07-29T14:50:21;2.30;;;2.10;;
5454;SDS011;2750;49.050;9.250;2023-07-29T14:55:23;2.60;;;2.40;;
5454;SDS011;2750;49.050;9.250;2023-07-29T15:00:25;2.42;;;2.22;;
5454;SDS011;2750;49.050;9.250;2023-07-29T15:05:28;2.40;;;2.20;;
5454;SDS011;2750;49.050;9.250;2023-07-29T15:10:29;2.30;;;2.10;;
5454;SDS011;2750;49.050;9.250;2023-07-29T15:15:31;2.38;;;2.10;;
5454;SDS011;2750;49.050;9.250;2023-07-29T15:20:34;2.38;;;2.03;;
5454;SDS011;2750;49.050;9.250;2023-07-29T15:25:35;2.83;;;2.00;;
5454;SDS011;2750;49.050;9.250;2023-07-29T15:30:39;2.30;;;2.10;;
5454;SDS011;2750;49.050;9.250;2023-07-29T15:35:42;2.17;;;1.98;;
5454;SDS011;2750;49.050;9.250;2023-07-29T15:40:43;4.15;;;2.30;;
5454;SDS011;2750;49.050;9.250;2023-07-29T15:45:45;2.15;;;1.95;;
5454;SDS011;2750;49.050;9.250;2023-07-29T15:50:48;2.17;;;2.03;;
5454;SDS011;2750;49.050;9.250;2023-07-29T15:55:49;2.70;;;2.50;;
5454;SDS011;2750;49.050;9.250;2023-07-29T16:00:51;2.50;;;2.30;;
5454;SDS011;2750;49.050;9.250;2023-07-29T16:05:54;2.30;;;2.10;;
5454;SDS011;2750;49.050;9.250;2023-07-29T16:10:55;2.95;;;2.28;;
5454;SDS011;2750;49.050;9.250;2023-07-29T16:15:57;3.25;;;2.53;;
5454;SDS011;2750;49.050;9.250;2023-07-29T16:21:00;2.55;;;2.35;;
5454;SDS011;2750;49.050;9.250;2023-07-29T16:26:02;4.60;;;2.47;;
5454;SDS011;2750;49.050;9.250;2023-07-29T16:31:04;2.92;;;2.50;;
5454;SDS011;2750;49.050;9.250;2023-07-29T16:36:07;2.55;;;2.35;;
5454;SDS011;2750;49.050;9.250;2023-07-29T16:41:08;2.53;;;2.33;;
5454;SDS011;2750;49.050;9.250;2023-07-29T16:46:10;2.53;;;2.25;;
5454;SDS011;2750;49.050;9.250;2023-07-29T16:51:12;2.95;;;2.60;;
5454;SDS011;2750;49.050;9.250;2023-07-29T16:56:14;2.60;;;2.40;;
5454;SDS011;2750;49.050;9.250;2023-07-29T17:01:16;3.22;;;2.92;;
5454;SDS011;2750;49.050;9.250;2023-07-29T17:06:19;2.53;;;2.33;;
5454;SDS011;2750;49.050;9.250;2023-07-29T17:11:20;2.75;;;2.50;;
5454;SDS011;2750;49.050;9.250;2023-07-29T17:16:22;2.72;;;2.53;;
5454;SDS011;2750;49.050;9.250;2023-07-29T17:21:25;2.97;;;2.78;;
5454;SDS011;2750;49.050;9.250;2023-07-29T17:26:26;2.65;;;2.38;;
5454;SDS011;2750;49.050;9.250;2023-07-29T17:31:28;2.22;;;2.03;;
5454;SDS011;2750;49.050;9.250;2023-07-29T17:36:31;2.83;;;2.42;;
5454;SDS011;2750;49.050;9.250;2023-07-29T17:41:33;2.90;;;2.58;;
5454;SDS011;2750;49.050;9.250;2023-07-29T17:46:34;2.60;;;2.40;;
5454;SDS011;2750;49.050;9.250;2023-07-29T17:51:37;3.80;;;2.78;;
5454;SDS011;2750;49.050;9.250;2023-07-29T17:56:39;2.85;;;2.65;;
5454;SDS011;2750;49.050;9.250;2023-07-29T18:01:41;3.10;;;2.65;;
5454;SDS011;2750;49.050;9.250;2023-07-29T18:06:44;2.88;;;2.60;;
5454;SDS011;2750;49.050;9.250;2023-07-29T18:11:45;5.03;;;3.17;;
5454;SDS011;2750;49.050;9.250;2023-07-29T18:16:47;5.28;;;2.60;;
5454;SDS011;2750;49.050;9.250;2023-07-29T18:21:50;3.83;;;2.92;;
5454;SDS011;2750;49.050;9.250;2023-07-29T18:26:51;3.40;;;3.10;;
5454;SDS011;2750;49.050;9.250;2023-07-29T18:31:53;3.03;;;2.67;;
5454;SDS011;2750;49.050;9.250;2023-07-29T18:36:57;2.95;;;2.72;;
5454;SDS011;2750;49.050;9.250;2023-07-29T18:41:58;3.28;;;2.63;;
5454;SDS011;2750;49.050;9.250;2023-07-29T18:47:00;2.95;;;2.75;;
5454;SDS011;2750;49.050;9.250;2023-07-29T18:52:03;2.85;;;2.58;;
5454;SDS011;2750;49.050;9.250;2023-07-29T18:57:05;3.58;;;2.50;;
5454;SDS011;2750;49.050;9.250;2023-07-29T19:02:08;2.65;;;2.45;;
5454;SDS011;2750;49.050;9.250;2023-07-29T19:07:10;3.53;;;2.63;;
5454;SDS011;2750;49.050;9.250;2023-07-29T19:12:12;2.83;;;2.63;;
5454;SDS011;2750;49.050;9.250;2023-07-29T19:17:14;3.60;;;3.22;;
5454;SDS011;2750;49.050;9.250;2023-07-29T19:22:17;3.03;;;2.83;;
5454;SDS011;2750;49.050;9.250;2023-07-29T19:27:18;3.10;;;2.80;;
5454;SDS011;2750;49.050;9.250;2023-07-29T19:32:20;3.70;;;3.22;;
5454;SDS011;2750;49.050;9.250;2023-07-29T19:37:24;2.80;;;2.45;;
5454;SDS011;2750;49.050;9.250;2023-07-29T19:42:26;3.73;;;3.33;;
5454;SDS011;2750;49.050;9.250;2023-07-29T19:47:28;3.83;;;3.08;;
5454;SDS011;2750;49.050;9.250;2023-07-29T19:52:31;3.60;;;3.30;;
5454;SDS011;2750;49.050;9.250;2023-07-29T19:57:32;3.50;;;3.20;;
5454;SDS011;2750;49.050;9.250;2023-07-29T20:02:34;3.43;;;3.13;;
5454;SDS011;2750;49.050;9.250;2023-07-29T20:07:37;4.37;;;3.87;;
5454;SDS011;2750;49.050;9.250;2023-07-29T20:12:38;4.20;;;3.80;;
5454;SDS011;2750;49.050;9.250;2023-07-29T20:17:40;4.13;;;3.73;;
5454;SDS011;2750;49.050;9.250;2023-07-29T20:22:44;5.37;;;3.33;;
5454;SDS011;2750;49.050;9.250;2023-07-29T20:27:46;4.00;;;3.33;;
5454;SDS011;2750;49.050;9.250;2023-07-29T20:32:48;3.87;;;2.93;;
5454;SDS011;2750;49.050;9.250;2023-07-29T20:37:51;6.23;;;4.07;;
5454;SDS011;2750;49.050;9.250;2023-07-29T20:42:52;4.47;;;3.10;;
5454;SDS011;2750;49.050;9.250;2023-07-29T20:47:54;4.70;;;3.17;;
5454;SDS011;2750;49.050;9.250;2023-07-29T20:52:57;4.93;;;3.53;;
5454;SDS011;2750;49.050;9.250;2023-07-29T20:57:58;7.67;;;3.40;;
5454;SDS011;2750;49.050;9.250;2023-07-29T21:03:00;3.47;;;3.17;;
5454;SDS011;2750;49.050;9.250;2023-07-29T21:08:03;3.80;;;3.30;;
5454;SDS011;2750;49.050;9.250;2023-07-29T21:13:05;3.50;;;3.20;;
5454;SDS011;2750;49.050;9.250;2023-07-29T21:18:06;3.40;;;3.07;;
5454;SDS011;2750;49.050;9.250;2023-07-29T21:23:09;3.27;;;2.97;;
5454;SDS011;2750;49.050;9.250;2023-07-29T21:28:11;5.80;;;3.70;;
5454;SDS011;2750;49.050;9.250;2023-07-29T21:33:12;3.93;;;3.53;;
5454;SDS011;2750;49.050;9.250;2023-07-29T21:38:15;4.13;;;3.47;;
5454;SDS011;2750;49.050;9.250;2023-07-29T21:43:17;3.60;;;3.30;;
5454;SDS011;2750;49.050;9.250;2023-07-29T21:48:19;4.00;;;3.70;;
5454;SDS011;2750;49.050;9.250;2023-07-29T21:53:22;4.60;;;3.70;;
5454;SDS011;2750;49.050;9.250;2023-07-29T21:58:23;5.30;;;3.50;;
5454;SDS011;2750;49.050;9.250;2023-07-29T22:03:25;4.37;;;3.97;;
5454;SDS011;2750;49.050;9.250;2023-07-29T22:08:28;4.00;;;3.70;;
5454;SDS011;2750;49.050;9.250;2023-07-29T22:13:30;5.67;;;4.30;;
5454;SDS011;2750;49.050;9.250;2023-07-29T22:18:32;4.57;;;4.07;;
5454;SDS011;2750;49.050;9.250;2023-07-29T22:23:35;5.20;;;4.70;;
5454;SDS011;2750;49.050;9.250;2023-07-29T22:28:37;5.40;;;4.90;;
5454;SDS011;2750;49.050;9.250;2023-07-29T22:33:38;5.67;;;4.97;;
5454;SDS011;2750;49.050;9.250;2023-07-29T22:38:41;5.77;;;5.07;;
5454;SDS011;2750;49.050;9.250;2023-07-29T22:43:43;5.83;;;4.97;;
5454;SDS011;2750;49.050;9.250;2023-07-29T22:48:44;8.43;;;5.97;;
5454;SDS011;2750;49.050;9.250;2023-07-29T22:53:47;7.03;;;5.97;;
5454;SDS011;2750;49.050;9.250;2023-07-29T22:58:49;5.73;;;5.23;;
5454;SDS011;2750;49.050;9.250;2023-07-29T23:03:50;7.13;;;5.57;;
5454;SDS011;2750;49.050;9.250;2023-07-29T23:08:53;5.70;;;5.10;;
5454;SDS011;2750;49.050;9.250;2023-07-29T23:13:55;5.83;;;5.30;;
5454;SDS011;2750;49.050;9.250;2023-07-29T23:18:56;9.77;;;6.03;;
5454;SDS011;2750;49.050;9.250;2023-07-29T23:23:59;7.23;;;5.63;;
5454;SDS011;2750;49.050;9.250;2023-07-29T23:29:01;8.63;;;6.17;;
5454;SDS011;2750;49.050;9.250;2023-07-29T23:34:02;7.93;;;6.43;;
5454;SDS011;2750;49.050;9.250;2023-07-29T23:39:05;6.37;;;5.87;;
5454;SDS011;2750;49.050;9.250;2023-07-29T23:44:07;6.77;;;6.17;;
5454;SDS011;2750;49.050;9.250;2023-07-29T23:49:08;8.27;;;7.47;;
5454;SDS011;2750;49.050;9.250;2023-07-29T23:54:11;8.07;;;7.27;;
5454;SDS011;2750;49.050;9.250;2023-07-29T23:59:13;7.17;;;6.47;;
